sensor_id;sensor_type;location;lat;lon;timestamp;P1;durP1;ratioP1;P2;durP2;ratioP2
6997;SDS011;3539;47.982;12.238;2022-07-23T00:00:03;25.37;;;24.17;;
6997;SDS011;3539;47.982;12.238;2022-07-23T00:02:30;29.80;;;28.33;;
6997;SDS011;3539;47.982;12.238;2022-07-23T00:04:58;35.57;;;33.93;;
6997;SDS011;3539;47.982;12.238;2022-07-23T00:07:25;27.73;;;26.37;;
6997;SDS011;3539;47.982;12.238;2022-07-23T00:09:52;25.83;;;24.57;;
6997;SDS011;3539;47.982;12.238;2022-07-23T00:12:19;28.00;;;26.60;;
6997;SDS011;3539;47.982;12.238;2022-07-23T00:14:46;25.80;;;24.43;;
6997;SDS011;3539;47.982;12.238;2022-07-23T00:17:13;31.03;;;29.50;;
6997;SDS011;3539;47.982;12.238;2022-07-23T00:19:40;30.30;;;28.80;;
6997;SDS011;3539;47.982;12.238;2022-07-23T00:22:08;14.90;;;13.83;;
6997;SDS011;3539;47.982;12.238;2022-07-23T00:24:35;15.87;;;14.80;;
6997;SDS011;3539;47.982;12.238;2022-07-23T00:27:02;11.97;;;11.17;;
6997;SDS011;3539;47.982;12.238;2022-07-23T00:29:30;13.40;;;12.40;;
6997;SDS011;3539;47.982;12.238;2022-07-23T00:31:58;9.20;;;8.50;;
6997;SDS011;3539;47.982;12.238;2022-07-23T00:34:26;8.07;;;7.43;;
6997;SDS011;3539;47.982;12.238;2022-07-23T00:36:53;8.10;;;7.50;;
6997;SDS011;3539;47.982;12.238;2022-07-23T00:39:22;8.50;;;7.80;;
6997;SDS011;3539;47.982;12.238;2022-07-23T00:41:50;8.17;;;7.37;;
6997;SDS011;3539;47.982;12.238;2022-07-23T00:44:19;7.67;;;7.07;;
6997;SDS011;3539;47.982;12.238;2022-07-23T00:46:47;7.57;;;7.07;;
6997;SDS011;3539;47.982;12.238;2022-07-23T00:49:18;8.53;;;7.93;;
6997;SDS011;3539;47.982;12.238;2022-07-23T00:51:45;8.10;;;7.50;;
6997;SDS011;3539;47.982;12.238;2022-07-23T00:54:12;8.33;;;7.73;;
6997;SDS011;3539;47.982;12.238;2022-07-23T00:56:40;8.03;;;7.43;;
6997;SDS011;3539;47.982;12.238;2022-07-23T00:59:07;7.73;;;7.13;;
6997;SDS011;3539;47.982;12.238;2022-07-23T01:01:35;7.07;;;6.57;;
6997;SDS011;3539;47.982;12.238;2022-07-23T01:04:01;6.87;;;6.37;;
6997;SDS011;3539;47.982;12.238;2022-07-23T01:06:28;7.03;;;6.40;;
6997;SDS011;3539;47.982;12.238;2022-07-23T01:08:55;6.70;;;6.00;;
6997;SDS011;3539;47.982;12.238;2022-07-23T01:11:22;6.50;;;5.90;;
6997;SDS011;3539;47.982;12.238;2022-07-23T01:13:51;7.03;;;6.47;;
6997;SDS011;3539;47.982;12.238;2022-07-23T01:16:18;7.17;;;5.90;;
6997;SDS011;3539;47.982;12.238;2022-07-23T01:18:45;6.37;;;5.87;;
6997;SDS011;3539;47.982;12.238;2022-07-23T01:21:12;6.43;;;5.93;;
6997;SDS011;3539;47.982;12.238;2022-07-23T01:23:41;6.37;;;5.97;;
6997;SDS011;3539;47.982;12.238;2022-07-23T01:26:08;6.43;;;5.90;;
6997;SDS011;3539;47.982;12.238;2022-07-23T01:28:35;6.10;;;5.50;;
6997;SDS011;3539;47.982;12.238;2022-07-23T01:31:02;5.93;;;5.53;;
6997;SDS011;3539;47.982;12.238;2022-07-23T01:33:29;5.70;;;5.30;;
6997;SDS011;3539;47.982;12.238;2022-07-23T01:35:55;6.10;;;5.60;;
6997;SDS011;3539;47.982;12.238;2022-07-23T01:38:22;6.43;;;5.50;;
6997;SDS011;3539;47.982;12.238;2022-07-23T01:40:50;6.73;;;6.23;;
6997;SDS011;3539;47.982;12.238;2022-07-23T01:43:17;5.97;;;5.47;;
6997;SDS011;3539;47.982;12.238;2022-07-23T01:45:46;6.90;;;6.30;;
6997;SDS011;3539;47.982;12.238;2022-07-23T01:48:13;6.83;;;6.33;;
6997;SDS011;3539;47.982;12.238;2022-07-23T01:50:41;6.37;;;5.87;;
6997;SDS011;3539;47.982;12.238;2022-07-23T01:53:08;6.87;;;6.27;;
6997;SDS011;3539;47.982;12.238;2022-07-23T01:55:35;6.53;;;5.93;;
6997;SDS011;3539;47.982;12.238;2022-07-23T01:58:03;7.00;;;6.37;;
6997;SDS011;3539;47.982;12.238;2022-07-23T02:00:30;6.40;;;5.80;;
6997;SDS011;3539;47.982;12.238;2022-07-23T02:02:57;6.73;;;6.23;;
6997;SDS011;3539;47.982;12.238;2022-07-23T02:05:24;7.77;;;7.00;;
6997;SDS011;3539;47.982;12.238;2022-07-23T02:07:53;7.93;;;7.33;;
6997;SDS011;3539;47.982;12.238;2022-07-23T02:10:22;8.27;;;7.47;;
6997;SDS011;3539;47.982;12.238;2022-07-23T02:12:49;8.97;;;8.10;;
6997;SDS011;3539;47.982;12.238;2022-07-23T02:15:17;8.80;;;8.10;;
6997;SDS011;3539;47.982;12.238;2022-07-23T02:17:44;9.93;;;9.13;;
6997;SDS011;3539;47.982;12.238;2022-07-23T02:20:11;11.40;;;10.43;;
6997;SDS011;3539;47.982;12.238;2022-07-23T02:22:38;11.00;;;10.00;;
6997;SDS011;3539;47.982;12.238;2022-07-23T02:25:06;10.50;;;9.60;;
6997;SDS011;3539;47.982;12.238;2022-07-23T02:27:33;14.17;;;13.17;;
6997;SDS011;3539;47.982;12.238;2022-07-23T02:30:00;16.53;;;15.23;;
6997;SDS011;3539;47.982;12.238;2022-07-23T02:32:28;16.03;;;14.83;;
6997;SDS011;3539;47.982;12.238;2022-07-23T02:34:55;19.63;;;18.40;;
6997;SDS011;3539;47.982;12.238;2022-07-23T02:37:22;16.53;;;15.53;;
6997;SDS011;3539;47.982;12.238;2022-07-23T02:39:48;14.93;;;14.03;;
6997;SDS011;3539;47.982;12.238;2022-07-23T02:42:16;17.90;;;16.67;;
6997;SDS011;3539;47.982;12.238;2022-07-23T02:44:43;21.13;;;19.90;;
6997;SDS011;3539;47.982;12.238;2022-07-23T02:47:09;15.53;;;14.53;;
6997;SDS011;3539;47.982;12.238;2022-07-23T02:49:37;13.60;;;12.80;;
6997;SDS011;3539;47.982;12.238;2022-07-23T02:52:04;13.67;;;12.73;;
6997;SDS011;3539;47.982;12.238;2022-07-23T02:54:31;14.67;;;13.67;;
6997;SDS011;3539;47.982;12.238;2022-07-23T02:56:58;15.00;;;13.73;;
6997;SDS011;3539;47.982;12.238;2022-07-23T02:59:24;14.30;;;13.40;;
6997;SDS011;3539;47.982;12.238;2022-07-23T03:01:51;13.13;;;12.13;;
6997;SDS011;3539;47.982;12.238;2022-07-23T03:04:18;14.83;;;13.93;;
6997;SDS011;3539;47.982;12.238;2022-07-23T03:06:46;12.97;;;12.17;;
6997;SDS011;3539;47.982;12.238;2022-07-23T03:09:13;15.47;;;13.97;;
6997;SDS011;3539;47.982;12.238;2022-07-23T03:11:40;14.20;;;13.10;;
6997;SDS011;3539;47.982;12.238;2022-07-23T03:14:06;16.83;;;15.73;;
6997;SDS011;3539;47.982;12.238;2022-07-23T03:16:33;16.33;;;15.33;;
6997;SDS011;3539;47.982;12.238;2022-07-23T03:19:01;14.03;;;12.93;;
6997;SDS011;3539;47.982;12.238;2022-07-23T03:21:27;15.93;;;15.03;;
6997;SDS011;3539;47.982;12.238;2022-07-23T03:23:56;11.77;;;11.07;;
6997;SDS011;3539;47.982;12.238;2022-07-23T03:26:22;15.33;;;14.07;;
6997;SDS011;3539;47.982;12.238;2022-07-23T03:28:50;15.53;;;14.73;;
6997;SDS011;3539;47.982;12.238;2022-07-23T03:31:17;11.97;;;11.17;;
6997;SDS011;3539;47.982;12.238;2022-07-23T03:33:44;11.80;;;10.90;;
6997;SDS011;3539;47.982;12.238;2022-07-23T03:36:10;12.13;;;11.33;;
6997;SDS011;3539;47.982;12.238;2022-07-23T03:38:37;9.10;;;8.50;;
6997;SDS011;3539;47.982;12.238;2022-07-23T03:41:08;10.70;;;10.00;;
6997;SDS011;3539;47.982;12.238;2022-07-23T03:43:35;10.47;;;9.47;;
6997;SDS011;3539;47.982;12.238;2022-07-23T03:46:01;11.17;;;10.43;;
6997;SDS011;3539;47.982;12.238;2022-07-23T03:48:28;12.67;;;11.87;;
6997;SDS011;3539;47.982;12.238;2022-07-23T03:50:57;12.87;;;12.00;;
6997;SDS011;3539;47.982;12.238;2022-07-23T03:53:23;12.80;;;11.97;;
6997;SDS011;3539;47.982;12.238;2022-07-23T03:55:50;12.87;;;12.17;;
6997;SDS011;3539;47.982;12.238;2022-07-23T03:58:18;15.13;;;14.23;;
6997;SDS011;3539;47.982;12.238;2022-07-23T04:00:45;15.53;;;14.63;;
6997;SDS011;3539;47.982;12.238;2022-07-23T04:03:12;15.50;;;14.30;;
6997;SDS011;3539;47.982;12.238;2022-07-23T04:05:39;17.40;;;16.30;;
6997;SDS011;3539;47.982;12.238;2022-07-23T04:08:05;15.00;;;14.10;;
6997;SDS011;3539;47.982;12.238;2022-07-23T04:10:32;16.47;;;15.37;;
6997;SDS011;3539;47.982;12.238;2022-07-23T04:12:59;15.80;;;14.90;;
6997;SDS011;3539;47.982;12.238;2022-07-23T04:15:27;12.93;;;12.13;;
6997;SDS011;3539;47.982;12.238;2022-07-23T04:17:54;16.10;;;15.00;;
6997;SDS011;3539;47.982;12.238;2022-07-23T04:20:20;16.23;;;15.30;;
6997;SDS011;3539;47.982;12.238;2022-07-23T04:22:47;14.23;;;13.07;;
6997;SDS011;3539;47.982;12.238;2022-07-23T04:25:14;15.10;;;14.10;;
6997;SDS011;3539;47.982;12.238;2022-07-23T04:27:41;16.10;;;15.00;;
6997;SDS011;3539;47.982;12.238;2022-07-23T04:30:08;16.33;;;15.13;;
6997;SDS011;3539;47.982;12.238;2022-07-23T04:32:36;13.07;;;12.07;;
6997;SDS011;3539;47.982;12.238;2022-07-23T04:35:03;8.97;;;8.27;;
6997;SDS011;3539;47.982;12.238;2022-07-23T04:37:31;7.83;;;7.23;;
6997;SDS011;3539;47.982;12.238;2022-07-23T04:39:57;7.03;;;6.43;;
6997;SDS011;3539;47.982;12.238;2022-07-23T04:42:24;8.80;;;7.83;;
6997;SDS011;3539;47.982;12.238;2022-07-23T04:44:51;6.83;;;6.23;;
6997;SDS011;3539;47.982;12.238;2022-07-23T04:47:18;7.10;;;6.43;;
6997;SDS011;3539;47.982;12.238;2022-07-23T04:49:46;7.20;;;6.60;;
6997;SDS011;3539;47.982;12.238;2022-07-23T04:52:13;7.17;;;6.47;;
6997;SDS011;3539;47.982;12.238;2022-07-23T04:54:41;7.43;;;6.83;;
6997;SDS011;3539;47.982;12.238;2022-07-23T04:57:08;6.67;;;6.17;;
6997;SDS011;3539;47.982;12.238;2022-07-23T04:59:35;8.20;;;7.70;;
6997;SDS011;3539;47.982;12.238;2022-07-23T05:02:01;8.00;;;7.50;;
6997;SDS011;3539;47.982;12.238;2022-07-23T05:04:28;9.67;;;8.97;;
6997;SDS011;3539;47.982;12.238;2022-07-23T05:06:59;7.27;;;6.77;;
6997;SDS011;3539;47.982;12.238;2022-07-23T05:09:26;8.40;;;7.80;;
6997;SDS011;3539;47.982;12.238;2022-07-23T05:11:53;13.77;;;13.07;;
6997;SDS011;3539;47.982;12.238;2022-07-23T05:14:20;14.43;;;13.63;;
6997;SDS011;3539;47.982;12.238;2022-07-23T05:16:46;14.80;;;14.00;;
6997;SDS011;3539;47.982;12.238;2022-07-23T05:19:13;12.20;;;11.50;;
6997;SDS011;3539;47.982;12.238;2022-07-23T05:21:40;15.37;;;14.67;;
6997;SDS011;3539;47.982;12.238;2022-07-23T05:24:09;14.57;;;13.67;;
6997;SDS011;3539;47.982;12.238;2022-07-23T05:26:36;14.40;;;13.60;;
6997;SDS011;3539;47.982;12.238;2022-07-23T05:29:03;13.50;;;12.70;;
6997;SDS011;3539;47.982;12.238;2022-07-23T05:31:31;9.10;;;8.53;;
6997;SDS011;3539;47.982;12.238;2022-07-23T05:33:57;12.80;;;12.10;;
6997;SDS011;3539;47.982;12.238;2022-07-23T05:36:24;14.37;;;13.57;;
6997;SDS011;3539;47.982;12.238;2022-07-23T05:38:51;12.33;;;11.53;;
6997;SDS011;3539;47.982;12.238;2022-07-23T05:41:19;16.57;;;15.57;;
6997;SDS011;3539;47.982;12.238;2022-07-23T05:43:46;13.77;;;12.97;;
6997;SDS011;3539;47.982;12.238;2022-07-23T05:46:13;14.80;;;14.10;;
6997;SDS011;3539;47.982;12.238;2022-07-23T05:48:40;12.03;;;11.00;;
6997;SDS011;3539;47.982;12.238;2022-07-23T05:51:07;9.53;;;8.93;;
6997;SDS011;3539;47.982;12.238;2022-07-23T05:53:34;10.00;;;9.33;;
6997;SDS011;3539;47.982;12.238;2022-07-23T05:56:01;12.03;;;11.30;;
6997;SDS011;3539;47.982;12.238;2022-07-23T05:58:29;8.50;;;7.90;;
6997;SDS011;3539;47.982;12.238;2022-07-23T06:00:56;8.40;;;7.80;;
6997;SDS011;3539;47.982;12.238;2022-07-23T06:03:23;9.57;;;8.90;;
6997;SDS011;3539;47.982;12.238;2022-07-23T06:05:52;10.50;;;9.80;;
6997;SDS011;3539;47.982;12.238;2022-07-23T06:08:19;8.90;;;8.33;;
6997;SDS011;3539;47.982;12.238;2022-07-23T06:10:46;12.30;;;11.23;;
6997;SDS011;3539;47.982;12.238;2022-07-23T06:13:13;14.90;;;14.07;;
6997;SDS011;3539;47.982;12.238;2022-07-23T06:15:41;19.05;;;18.05;;
6997;SDS011;3539;47.982;12.238;2022-07-23T06:18:08;11.97;;;11.17;;
6997;SDS011;3539;47.982;12.238;2022-07-23T06:20:35;13.13;;;12.33;;
6997;SDS011;3539;47.982;12.238;2022-07-23T06:23:05;12.27;;;11.33;;
6997;SDS011;3539;47.982;12.238;2022-07-23T06:25:32;8.83;;;8.13;;
6997;SDS011;3539;47.982;12.238;2022-07-23T06:27:59;10.70;;;10.03;;
6997;SDS011;3539;47.982;12.238;2022-07-23T06:30:26;8.73;;;8.13;;
6997;SDS011;3539;47.982;12.238;2022-07-23T06:32:55;8.70;;;8.10;;
6997;SDS011;3539;47.982;12.238;2022-07-23T06:35:22;8.40;;;7.80;;
6997;SDS011;3539;47.982;12.238;2022-07-23T06:37:49;7.43;;;6.93;;
6997;SDS011;3539;47.982;12.238;2022-07-23T06:40:16;7.73;;;7.13;;
6997;SDS011;3539;47.982;12.238;2022-07-23T06:42:42;9.60;;;8.90;;
6997;SDS011;3539;47.982;12.238;2022-07-23T06:45:09;10.37;;;9.53;;
6997;SDS011;3539;47.982;12.238;2022-07-23T06:47:36;9.57;;;8.50;;
6997;SDS011;3539;47.982;12.238;2022-07-23T06:50:05;8.37;;;7.63;;
6997;SDS011;3539;47.982;12.238;2022-07-23T06:52:35;10.53;;;9.63;;
6997;SDS011;3539;47.982;12.238;2022-07-23T06:55:01;9.17;;;8.57;;
6997;SDS011;3539;47.982;12.238;2022-07-23T06:57:28;9.47;;;8.60;;
6997;SDS011;3539;47.982;12.238;2022-07-23T06:59:55;7.93;;;7.33;;
6997;SDS011;3539;47.982;12.238;2022-07-23T07:02:22;9.93;;;7.97;;
6997;SDS011;3539;47.982;12.238;2022-07-23T07:04:49;8.43;;;7.83;;
6997;SDS011;3539;47.982;12.238;2022-07-23T07:07:17;8.90;;;8.10;;
6997;SDS011;3539;47.982;12.238;2022-07-23T07:09:44;9.00;;;8.30;;
6997;SDS011;3539;47.982;12.238;2022-07-23T07:12:11;8.70;;;8.10;;
6997;SDS011;3539;47.982;12.238;2022-07-23T07:14:38;8.90;;;8.20;;
6997;SDS011;3539;47.982;12.238;2022-07-23T07:17:05;10.00;;;9.20;;
6997;SDS011;3539;47.982;12.238;2022-07-23T07:19:31;7.57;;;7.07;;
6997;SDS011;3539;47.982;12.238;2022-07-23T07:21:58;8.60;;;7.73;;
6997;SDS011;3539;47.982;12.238;2022-07-23T07:24:26;8.00;;;7.30;;
6997;SDS011;3539;47.982;12.238;2022-07-23T07:26:53;8.67;;;8.07;;
6997;SDS011;3539;47.982;12.238;2022-07-23T07:29:20;8.80;;;8.20;;
6997;SDS011;3539;47.982;12.238;2022-07-23T07:31:47;9.50;;;8.80;;
6997;SDS011;3539;47.982;12.238;2022-07-23T07:34:13;11.23;;;10.23;;
6997;SDS011;3539;47.982;12.238;2022-07-23T07:36:40;10.57;;;9.83;;
6997;SDS011;3539;47.982;12.238;2022-07-23T07:39:08;9.07;;;8.37;;
6997;SDS011;3539;47.982;12.238;2022-07-23T07:41:37;10.07;;;9.33;;
6997;SDS011;3539;47.982;12.238;2022-07-23T07:44:04;9.83;;;9.03;;
6997;SDS011;3539;47.982;12.238;2022-07-23T07:46:30;11.63;;;10.83;;
6997;SDS011;3539;47.982;12.238;2022-07-23T07:48:59;11.07;;;10.07;;
6997;SDS011;3539;47.982;12.238;2022-07-23T07:51:56;8.47;;;7.73;;
6997;SDS011;3539;47.982;12.238;2022-07-23T07:54:22;8.70;;;7.90;;
6997;SDS011;3539;47.982;12.238;2022-07-23T07:56:51;8.77;;;8.17;;
6997;SDS011;3539;47.982;12.238;2022-07-23T07:59:17;9.67;;;8.93;;
6997;SDS011;3539;47.982;12.238;2022-07-23T08:01:44;13.73;;;12.73;;
6997;SDS011;3539;47.982;12.238;2022-07-23T08:04:11;9.60;;;8.90;;
6997;SDS011;3539;47.982;12.238;2022-07-23T08:06:38;9.40;;;8.63;;
6997;SDS011;3539;47.982;12.238;2022-07-23T08:09:04;9.53;;;8.53;;
6997;SDS011;3539;47.982;12.238;2022-07-23T08:11:34;9.20;;;8.60;;
6997;SDS011;3539;47.982;12.238;2022-07-23T08:14:09;8.83;;;8.13;;
6997;SDS011;3539;47.982;12.238;2022-07-23T08:16:37;9.03;;;8.33;;
6997;SDS011;3539;47.982;12.238;2022-07-23T08:22:04;8.70;;;7.83;;
6997;SDS011;3539;47.982;12.238;2022-07-23T08:24:31;10.03;;;9.23;;
6997;SDS011;3539;47.982;12.238;2022-07-23T08:27:00;9.53;;;8.73;;
6997;SDS011;3539;47.982;12.238;2022-07-23T08:29:31;9.67;;;8.77;;
6997;SDS011;3539;47.982;12.238;2022-07-23T08:31:58;9.57;;;8.70;;
6997;SDS011;3539;47.982;12.238;2022-07-23T08:34:25;9.97;;;9.17;;
6997;SDS011;3539;47.982;12.238;2022-07-23T08:36:52;11.37;;;10.53;;
6997;SDS011;3539;47.982;12.238;2022-07-23T08:39:19;12.13;;;11.33;;
6997;SDS011;3539;47.982;12.238;2022-07-23T08:41:47;10.50;;;9.67;;
6997;SDS011;3539;47.982;12.238;2022-07-23T08:44:15;12.70;;;11.83;;
6997;SDS011;3539;47.982;12.238;2022-07-23T08:46:50;16.40;;;15.40;;
6997;SDS011;3539;47.982;12.238;2022-07-23T08:49:17;16.40;;;15.47;;
6997;SDS011;3539;47.982;12.238;2022-07-23T08:51:44;15.43;;;14.53;;
6997;SDS011;3539;47.982;12.238;2022-07-23T08:54:11;12.47;;;11.60;;
6997;SDS011;3539;47.982;12.238;2022-07-23T08:56:38;12.93;;;11.93;;
6997;SDS011;3539;47.982;12.238;2022-07-23T08:59:06;15.27;;;14.27;;
6997;SDS011;3539;47.982;12.238;2022-07-23T09:01:38;11.10;;;10.40;;
6997;SDS011;3539;47.982;12.238;2022-07-23T09:04:09;18.17;;;16.87;;
6997;SDS011;3539;47.982;12.238;2022-07-23T09:06:38;13.20;;;12.13;;
6997;SDS011;3539;47.982;12.238;2022-07-23T09:09:16;16.80;;;15.90;;
6997;SDS011;3539;47.982;12.238;2022-07-23T09:11:45;16.10;;;15.10;;
6997;SDS011;3539;47.982;12.238;2022-07-23T09:14:12;13.67;;;12.83;;
6997;SDS011;3539;47.982;12.238;2022-07-23T09:16:39;14.93;;;13.93;;
6997;SDS011;3539;47.982;12.238;2022-07-23T09:19:10;18.37;;;17.27;;
6997;SDS011;3539;47.982;12.238;2022-07-23T09:21:39;14.83;;;13.93;;
6997;SDS011;3539;47.982;12.238;2022-07-23T09:24:07;19.57;;;18.53;;
6997;SDS011;3539;47.982;12.238;2022-07-23T09:26:35;16.00;;;15.00;;
6997;SDS011;3539;47.982;12.238;2022-07-23T09:29:04;11.40;;;10.50;;
6997;SDS011;3539;47.982;12.238;2022-07-23T09:31:35;13.30;;;12.50;;
6997;SDS011;3539;47.982;12.238;2022-07-23T09:34:13;14.43;;;13.53;;
6997;SDS011;3539;47.982;12.238;2022-07-23T09:36:42;11.87;;;11.20;;
6997;SDS011;3539;47.982;12.238;2022-07-23T09:39:10;16.10;;;15.00;;
6997;SDS011;3539;47.982;12.238;2022-07-23T09:41:38;15.43;;;14.47;;
6997;SDS011;3539;47.982;12.238;2022-07-23T09:44:07;16.70;;;15.80;;
6997;SDS011;3539;47.982;12.238;2022-07-23T09:46:35;15.23;;;14.23;;
6997;SDS011;3539;47.982;12.238;2022-07-23T09:49:12;22.90;;;21.60;;
6997;SDS011;3539;47.982;12.238;2022-07-23T09:51:45;22.93;;;21.70;;
6997;SDS011;3539;47.982;12.238;2022-07-23T09:54:20;21.73;;;20.23;;
6997;SDS011;3539;47.982;12.238;2022-07-23T09:56:49;22.53;;;21.13;;
6997;SDS011;3539;47.982;12.238;2022-07-23T09:59:17;16.17;;;15.27;;
6997;SDS011;3539;47.982;12.238;2022-07-23T10:01:45;13.70;;;13.00;;
6997;SDS011;3539;47.982;12.238;2022-07-23T10:04:13;18.03;;;16.93;;
6997;SDS011;3539;47.982;12.238;2022-07-23T10:06:42;20.67;;;19.67;;
6997;SDS011;3539;47.982;12.238;2022-07-23T10:09:10;19.27;;;18.07;;
6997;SDS011;3539;47.982;12.238;2022-07-23T10:11:38;13.47;;;12.57;;
6997;SDS011;3539;47.982;12.238;2022-07-23T10:14:05;11.50;;;10.80;;
6997;SDS011;3539;47.982;12.238;2022-07-23T10:16:31;11.53;;;10.83;;
6997;SDS011;3539;47.982;12.238;2022-07-23T10:18:58;8.27;;;7.73;;
6997;SDS011;3539;47.982;12.238;2022-07-23T10:21:27;8.77;;;8.17;;
6997;SDS011;3539;47.982;12.238;2022-07-23T10:24:04;14.30;;;13.53;;
6997;SDS011;3539;47.982;12.238;2022-07-23T10:26:38;13.57;;;12.57;;
6997;SDS011;3539;47.982;12.238;2022-07-23T10:29:13;17.37;;;16.47;;
6997;SDS011;3539;47.982;12.238;2022-07-23T10:31:51;19.23;;;18.27;;
6997;SDS011;3539;47.982;12.238;2022-07-23T10:34:26;22.87;;;21.43;;
6997;SDS011;3539;47.982;12.238;2022-07-23T10:37:05;21.17;;;20.10;;
6997;SDS011;3539;47.982;12.238;2022-07-23T10:39:42;31.27;;;29.67;;
6997;SDS011;3539;47.982;12.238;2022-07-23T10:42:12;28.47;;;27.07;;
6997;SDS011;3539;47.982;12.238;2022-07-23T10:44:41;25.63;;;24.37;;
6997;SDS011;3539;47.982;12.238;2022-07-23T10:47:09;42.43;;;40.20;;
6997;SDS011;3539;47.982;12.238;2022-07-23T11:00:35;34.72;;;32.96;;
6997;SDS011;3539;47.982;12.238;2022-07-23T11:03:04;47.90;;;45.63;;
6997;SDS011;3539;47.982;12.238;2022-07-23T11:05:40;42.17;;;40.07;;
6997;SDS011;3539;47.982;12.238;2022-07-23T11:08:13;47.20;;;45.03;;
6997;SDS011;3539;47.982;12.238;2022-07-23T11:11:09;37.93;;;36.07;;
6997;SDS011;3539;47.982;12.238;2022-07-23T11:14:00;40.20;;;38.30;;
6997;SDS011;3539;47.982;12.238;2022-07-23T11:16:47;46.00;;;43.80;;
6997;SDS011;3539;47.982;12.238;2022-07-23T11:19:14;48.50;;;46.10;;
6997;SDS011;3539;47.982;12.238;2022-07-23T11:21:42;40.07;;;38.07;;
6997;SDS011;3539;47.982;12.238;2022-07-23T11:24:11;51.40;;;48.83;;
6997;SDS011;3539;47.982;12.238;2022-07-23T11:26:43;47.97;;;45.63;;
6997;SDS011;3539;47.982;12.238;2022-07-23T11:32:36;50.70;;;48.30;;
6997;SDS011;3539;47.982;12.238;2022-07-23T11:35:21;29.13;;;27.63;;
6997;SDS011;3539;47.982;12.238;2022-07-23T11:37:51;32.70;;;31.07;;
6997;SDS011;3539;47.982;12.238;2022-07-23T11:40:26;45.03;;;42.80;;
6997;SDS011;3539;47.982;12.238;2022-07-23T11:43:10;47.57;;;45.40;;
6997;SDS011;3539;47.982;12.238;2022-07-23T11:45:39;38.20;;;36.30;;
6997;SDS011;3539;47.982;12.238;2022-07-23T11:48:09;40.57;;;38.67;;
6997;SDS011;3539;47.982;12.238;2022-07-23T11:50:46;39.90;;;38.00;;
6997;SDS011;3539;47.982;12.238;2022-07-23T11:53:13;41.43;;;39.30;;
6997;SDS011;3539;47.982;12.238;2022-07-23T11:55:42;31.27;;;29.77;;
6997;SDS011;3539;47.982;12.238;2022-07-23T11:58:09;47.27;;;45.03;;
6997;SDS011;3539;47.982;12.238;2022-07-23T12:00:36;39.50;;;37.60;;
6997;SDS011;3539;47.982;12.238;2022-07-23T12:03:08;46.73;;;44.47;;
6997;SDS011;3539;47.982;12.238;2022-07-23T12:05:37;48.20;;;45.90;;
6997;SDS011;3539;47.982;12.238;2022-07-23T12:08:11;42.30;;;40.40;;
6997;SDS011;3539;47.982;12.238;2022-07-23T12:10:54;42.00;;;39.97;;
6997;SDS011;3539;47.982;12.238;2022-07-23T12:13:27;47.90;;;45.50;;
6997;SDS011;3539;47.982;12.238;2022-07-23T12:16:02;47.80;;;45.60;;
6997;SDS011;3539;47.982;12.238;2022-07-23T12:21:51;37.83;;;36.03;;
6997;SDS011;3539;47.982;12.238;2022-07-23T12:24:56;40.90;;;38.93;;
6997;SDS011;3539;47.982;12.238;2022-07-23T12:27:32;41.10;;;39.10;;
6997;SDS011;3539;47.982;12.238;2022-07-23T12:30:27;37.87;;;36.07;;
6997;SDS011;3539;47.982;12.238;2022-07-23T12:32:57;38.73;;;36.73;;
6997;SDS011;3539;47.982;12.238;2022-07-23T12:35:30;35.37;;;33.70;;
6997;SDS011;3539;47.982;12.238;2022-07-23T12:38:36;38.17;;;36.13;;
6997;SDS011;3539;47.982;12.238;2022-07-23T12:41:11;36.40;;;34.70;;
6997;SDS011;3539;47.982;12.238;2022-07-23T12:44:14;36.27;;;34.60;;
6997;SDS011;3539;47.982;12.238;2022-07-23T12:46:43;39.90;;;37.97;;
6997;SDS011;3539;47.982;12.238;2022-07-23T12:49:24;60.65;;;57.75;;
6997;SDS011;3539;47.982;12.238;2022-07-23T12:51:52;55.70;;;52.90;;
6997;SDS011;3539;47.982;12.238;2022-07-23T12:54:30;37.73;;;35.73;;
6997;SDS011;3539;47.982;12.238;2022-07-23T12:56:58;49.13;;;46.87;;
6997;SDS011;3539;47.982;12.238;2022-07-23T12:59:31;54.77;;;52.20;;
6997;SDS011;3539;47.982;12.238;2022-07-23T13:02:00;40.70;;;38.77;;
6997;SDS011;3539;47.982;12.238;2022-07-23T13:04:27;43.93;;;41.93;;
6997;SDS011;3539;47.982;12.238;2022-07-23T13:06:57;44.47;;;42.33;;
6997;SDS011;3539;47.982;12.238;2022-07-23T13:09:26;40.33;;;38.40;;
6997;SDS011;3539;47.982;12.238;2022-07-23T13:12:04;37.93;;;36.00;;
6997;SDS011;3539;47.982;12.238;2022-07-23T13:14:32;41.17;;;39.10;;
6997;SDS011;3539;47.982;12.238;2022-07-23T13:16:59;43.10;;;41.07;;
6997;SDS011;3539;47.982;12.238;2022-07-23T13:19:31;47.23;;;44.93;;
6997;SDS011;3539;47.982;12.238;2022-07-23T13:21:58;40.83;;;38.80;;
6997;SDS011;3539;47.982;12.238;2022-07-23T13:24:38;49.97;;;47.57;;
6997;SDS011;3539;47.982;12.238;2022-07-23T13:27:12;52.87;;;50.33;;
6997;SDS011;3539;47.982;12.238;2022-07-23T13:29:39;44.45;;;42.35;;
6997;SDS011;3539;47.982;12.238;2022-07-23T13:32:06;51.93;;;49.47;;
6997;SDS011;3539;47.982;12.238;2022-07-23T13:34:33;58.50;;;55.67;;
6997;SDS011;3539;47.982;12.238;2022-07-23T13:37:03;42.97;;;40.97;;
6997;SDS011;3539;47.982;12.238;2022-07-23T13:39:32;52.77;;;50.30;;
6997;SDS011;3539;47.982;12.238;2022-07-23T13:42:00;47.20;;;45.07;;
6997;SDS011;3539;47.982;12.238;2022-07-23T13:44:29;41.73;;;39.70;;
6997;SDS011;3539;47.982;12.238;2022-07-23T13:47:19;39.17;;;37.30;;
6997;SDS011;3539;47.982;12.238;2022-07-23T13:50:06;38.33;;;36.47;;
6997;SDS011;3539;47.982;12.238;2022-07-23T13:52:34;33.93;;;32.13;;
6997;SDS011;3539;47.982;12.238;2022-07-23T13:55:19;37.90;;;36.00;;
6997;SDS011;3539;47.982;12.238;2022-07-23T13:57:46;56.07;;;53.50;;
6997;SDS011;3539;47.982;12.238;2022-07-23T14:00:16;36.40;;;34.70;;
6997;SDS011;3539;47.982;12.238;2022-07-23T14:02:58;57.63;;;54.87;;
6997;SDS011;3539;47.982;12.238;2022-07-23T14:05:41;39.57;;;37.70;;
6997;SDS011;3539;47.982;12.238;2022-07-23T14:08:09;37.50;;;35.57;;
6997;SDS011;3539;47.982;12.238;2022-07-23T14:10:39;45.77;;;43.47;;
6997;SDS011;3539;47.982;12.238;2022-07-23T14:13:21;26.63;;;25.37;;
6997;SDS011;3539;47.982;12.238;2022-07-23T14:15:50;17.33;;;16.37;;
6997;SDS011;3539;47.982;12.238;2022-07-23T14:18:19;18.13;;;17.07;;
6997;SDS011;3539;47.982;12.238;2022-07-23T14:20:51;20.37;;;19.17;;
6997;SDS011;3539;47.982;12.238;2022-07-23T14:23:19;13.40;;;12.60;;
6997;SDS011;3539;47.982;12.238;2022-07-23T14:25:55;10.97;;;10.07;;
6997;SDS011;3539;47.982;12.238;2022-07-23T14:28:32;9.03;;;8.33;;
6997;SDS011;3539;47.982;12.238;2022-07-23T14:31:00;9.47;;;8.67;;
6997;SDS011;3539;47.982;12.238;2022-07-23T14:33:39;8.67;;;7.97;;
6997;SDS011;3539;47.982;12.238;2022-07-23T14:36:06;8.70;;;8.03;;
6997;SDS011;3539;47.982;12.238;2022-07-23T14:38:36;7.87;;;7.27;;
6997;SDS011;3539;47.982;12.238;2022-07-23T14:41:07;7.93;;;7.23;;
6997;SDS011;3539;47.982;12.238;2022-07-23T14:43:34;7.37;;;6.77;;
6997;SDS011;3539;47.982;12.238;2022-07-23T14:46:01;7.03;;;6.37;;
6997;SDS011;3539;47.982;12.238;2022-07-23T14:48:29;6.80;;;6.30;;
6997;SDS011;3539;47.982;12.238;2022-07-23T14:50:57;6.80;;;5.93;;
6997;SDS011;3539;47.982;12.238;2022-07-23T14:53:24;6.70;;;6.10;;
6997;SDS011;3539;47.982;12.238;2022-07-23T14:55:51;6.17;;;5.63;;
6997;SDS011;3539;47.982;12.238;2022-07-23T14:58:22;6.73;;;6.13;;
6997;SDS011;3539;47.982;12.238;2022-07-23T15:00:51;8.07;;;6.30;;
6997;SDS011;3539;47.982;12.238;2022-07-23T15:03:22;6.60;;;5.73;;
6997;SDS011;3539;47.982;12.238;2022-07-23T15:05:50;6.27;;;5.70;;
6997;SDS011;3539;47.982;12.238;2022-07-23T15:08:18;6.33;;;5.73;;
6997;SDS011;3539;47.982;12.238;2022-07-23T15:10:44;6.33;;;5.73;;
6997;SDS011;3539;47.982;12.238;2022-07-23T15:13:12;6.10;;;5.60;;
6997;SDS011;3539;47.982;12.238;2022-07-23T15:15:41;7.13;;;6.53;;
6997;SDS011;3539;47.982;12.238;2022-07-23T15:18:23;6.73;;;6.13;;